Terminal Aerodrome Forecast
Issued by NWS

Home | Current Version | Previous Version | Text Only | Print | Product List | Glossary On
Versions: 1 2 3 4 5 6 7 8 9 10 11 12 13 14 15 16 17 18 19 20 21 22 23 24
000
FTUS41 KOKX 031430 AAA
TAFHPN
TAF AMD
KHPN 031430Z 0315/0412 VRB02KT P6SM FEW250
     FM031800 24006KT P6SM FEW060
     FM032000 21007KT P6SM SCT060
     FM032200 17008KT P6SM FEW250
     FM040000 VRB03KT P6SM SKC
      AMD NOT SKED=

USA.gov is the U.S. government's official web portal to all federal, state and local government web resources and services.